Time;durP1;ratioP1;P1;durP2;ratioP2;P2;SDS_P1;SDS_P2;PMS_P1;PMS_P2;Temp;Humidity;BMP_temperature;BMP_pressure;BME280_temperature;BME280_humidity;BME280_pressure;Samples;Min_cycle;Max_cycle;Signal;HPM_P1;HPM_P2
2024/01/05 00:01:49;;;;;;;11.60;9.20;;;;;;;13.72;53.47;100277.30;106332;1256;1002884;-51
2024/01/05 00:04:16;;;;;;;11.00;9.20;;;;;;;13.72;53.51;100277.48;107172;1257;25379;-51
2024/01/05 00:06:43;;;;;;;10.80;8.50;;;;;;;13.73;53.61;100282.50;107103;1256;24184;-51
2024/01/05 00:09:11;;;;;;;10.20;8.60;;;;;;;13.74;53.44;100286.65;107101;1257;25484;-51
2024/01/05 00:11:38;;;;;;;9.00;7.60;;;;;;;13.75;53.41;100289.73;107057;1257;25356;-51
2024/01/05 00:14:05;;;;;;;9.10;8.10;;;;;;;13.76;53.42;100296.68;106861;1259;25405;-51
2024/01/05 00:16:32;;;;;;;10.50;8.30;;;;;;;13.77;53.39;100301.85;106864;1260;25398;-52
2024/01/05 00:18:59;;;;;;;10.20;8.00;;;;;;;13.78;53.30;100299.91;107091;1259;25356;-50
2024/01/05 00:21:27;;;;;;;8.90;8.00;;;;;;;13.79;53.24;100294.98;106144;1260;1003203;-51
2024/01/05 00:23:55;;;;;;;11.10;7.50;;;;;;;13.81;53.16;100301.68;107119;1256;25363;-51
2024/01/05 00:26:22;;;;;;;10.50;8.30;;;;;;;13.90;52.86;100306.02;107144;1257;25328;-51
2024/01/05 00:28:53;;;;;;;9.10;8.10;;;;;;;13.91;52.77;100301.77;107208;1257;25363;-51
2024/01/05 00:31:20;;;;;;;9.90;7.60;;;;;;;13.89;52.62;100299.41;106992;1256;25481;-52
2024/01/05 00:33:47;;;;;;;9.50;8.00;;;;;;;13.88;52.65;100300.52;107206;1251;25350;-52
2024/01/05 00:36:14;;;;;;;10.10;7.50;;;;;;;13.89;52.61;100302.89;106825;1267;25408;-52
2024/01/05 00:38:47;;;;;;;10.20;8.40;;;;;;;13.88;52.43;100301.02;107020;1266;25315;-52
2024/01/05 00:41:14;;;;;;;10.10;7.50;;;;;;;13.87;52.32;100309.79;107131;1257;25402;-52
2024/01/05 00:43:43;;;;;;;9.70;8.10;;;;;;;13.85;52.17;100311.63;107026;1266;25363;-52
2024/01/05 00:46:10;;;;;;;9.60;7.40;;;;;;;13.81;52.07;100307.63;106994;1261;25353;-52
2024/01/05 00:48:37;;;;;;;7.70;6.90;;;;;;;13.77;52.10;100307.61;107118;1254;22527;-52
2024/01/05 00:51:06;;;;;;;7.90;7.10;;;;;;;13.75;52.07;100307.34;107062;1257;25328;-51
2024/01/05 00:53:33;;;;;;;9.10;7.50;;;;;;;13.73;52.03;100311.26;107039;1257;25504;-52
2024/01/05 00:56:00;;;;;;;8.90;7.30;;;;;;;13.71;51.94;100313.42;107147;1257;25337;-51
2024/01/05 00:58:27;;;;;;;9.90;7.60;;;;;;;13.69;51.94;100315.95;107191;1257;25487;-51
2024/01/05 01:00:54;;;;;;;10.10;7.10;;;;;;;13.68;51.92;100314.29;106659;1272;25356;-52
2024/01/05 01:03:21;;;;;;;9.10;7.50;;;;;;;13.67;51.97;100314.30;107004;1256;25369;-52
2024/01/05 01:05:48;;;;;;;10.40;7.30;;;;;;;13.68;51.91;100318.81;106868;1259;25328;-51
2024/01/05 01:08:16;;;;;;;9.90;7.70;;;;;;;13.68;51.76;100330.66;107157;1257;25354;-52
2024/01/05 01:10:43;;;;;;;8.20;7.30;;;;;;;13.67;51.72;100333.66;107136;1257;25488;-52
2024/01/05 01:13:10;;;;;;;8.00;6.90;;;;;;;13.66;51.68;100330.37;107061;1256;25353;-52
2024/01/05 01:15:37;;;;;;;9.90;7.80;;;;;;;13.66;51.58;100332.27;107069;1254;25487;-52
2024/01/05 01:18:04;;;;;;;8.60;7.70;;;;;;;13.67;51.59;100335.75;106887;1259;25389;-52
2024/01/05 01:20:31;;;;;;;9.50;7.70;;;;;;;13.66;51.42;100344.14;107161;1256;25405;-52
2024/01/05 01:22:58;;;;;;;8.00;7.20;;;;;;;13.65;51.41;100348.02;107076;1257;25337;-53
2024/01/05 01:25:25;;;;;;;9.60;7.10;;;;;;;13.65;51.36;100348.03;107055;1256;25328;-52
2024/01/05 01:27:52;;;;;;;8.40;7.10;;;;;;;13.66;51.34;100354.77;106814;1262;25325;-52
2024/01/05 01:30:19;;;;;;;9.00;7.30;;;;;;;13.66;51.26;100357.38;106813;1259;25322;-51
2024/01/05 01:32:46;;;;;;;12.00;7.20;;;;;;;13.67;51.09;100357.88;106891;1272;25484;-52
2024/01/05 01:35:13;;;;;;;7.40;6.60;;;;;;;13.68;50.99;100355.25;107174;1257;25392;-51
2024/01/05 01:37:40;;;;;;;9.30;7.00;;;;;;;13.67;50.84;100357.02;107050;1257;25366;-50
2024/01/05 01:40:08;;;;;;;7.60;6.80;;;;;;;13.66;50.68;100359.51;107155;1257;25363;-50
2024/01/05 01:42:36;;;;;;;8.90;6.80;;;;;;;13.64;50.60;100362.90;107194;1254;24860;-51
2024/01/05 01:45:04;;;;;;;9.10;7.20;;;;;;;13.63;50.48;100369.58;106294;1257;1003141;-51
2024/01/05 01:47:33;;;;;;;7.90;6.80;;;;;;;13.62;50.39;100375.02;107043;1254;25359;-51
2024/01/05 01:50:00;;;;;;;8.80;7.10;;;;;;;13.60;50.33;100372.45;107097;1258;22526;-53
2024/01/05 01:52:27;;;;;;;8.60;6.60;;;;;;;13.59;50.25;100375.83;106991;1259;22520;-50
2024/01/05 01:54:54;;;;;;;9.20;7.40;;;;;;;13.57;50.20;100378.33;107139;1264;25360;-51
2024/01/05 01:57:20;;;;;;;10.70;6.90;;;;;;;13.56;50.10;100379.98;107183;1263;22539;-51
2024/01/05 01:59:48;;;;;;;8.00;6.30;;;;;;;13.55;49.97;100380.02;107164;1257;25551;-51
2024/01/05 02:02:15;;;;;;;8.70;7.20;;;;;;;13.54;49.94;100379.52;106811;1256;25334;-50
2024/01/05 02:04:42;;;;;;;7.70;6.40;;;;;;;13.53;49.90;100385.83;106755;1259;25401;-51
2024/01/05 02:07:09;;;;;;;9.50;7.30;;;;;;;13.50;49.85;100385.58;106688;1263;25373;-51
2024/01/05 02:09:36;;;;;;;8.80;6.60;;;;;;;13.50;49.71;100389.27;106593;1262;24364;-51
2024/01/05 02:12:03;;;;;;;8.60;6.40;;;;;;;13.48;49.63;100389.33;106735;1262;25419;-51
2024/01/05 02:14:31;;;;;;;7.70;6.40;;;;;;;13.47;49.53;100401.22;106651;1269;26150;-51
2024/01/05 02:16:59;;;;;;;9.70;6.60;;;;;;;13.45;49.55;100402.33;105860;1275;1003082;-51
2024/01/05 02:19:26;;;;;;;8.70;6.60;;;;;;;13.44;49.41;100403.42;106821;1261;25488;-51
2024/01/05 02:21:55;;;;;;;7.40;6.30;;;;;;;13.43;49.42;100405.38;106479;1272;25524;-51
2024/01/05 02:24:22;;;;;;;7.80;6.60;;;;;;;13.41;49.23;100409.46;106635;1262;25404;-51
2024/01/05 02:26:49;;;;;;;8.10;6.90;;;;;;;13.39;49.10;100411.14;106773;1271;25328;-53
2024/01/05 02:29:21;;;;;;;8.40;6.90;;;;;;;13.35;49.00;100413.71;106559;1266;25373;-52
2024/01/05 02:31:48;;;;;;;9.10;7.10;;;;;;;13.32;48.87;100413.50;106757;1257;25363;-50
2024/01/05 02:34:15;;;;;;;8.10;6.70;;;;;;;13.29;48.78;100421.96;106695;1261;25453;-52
2024/01/05 02:36:43;;;;;;;8.20;6.70;;;;;;;13.25;48.77;100423.34;106799;1262;25356;-53
2024/01/05 02:39:12;;;;;;;8.60;6.40;;;;;;;13.22;48.70;100425.55;106688;1267;25414;-50
2024/01/05 02:41:39;;;;;;;8.40;6.90;;;;;;;13.18;48.76;100427.95;106944;1259;25337;-50
2024/01/05 02:44:06;;;;;;;9.90;7.10;;;;;;;13.16;48.82;100433.27;106870;1262;25508;-52
2024/01/05 02:46:35;;;;;;;7.90;6.40;;;;;;;13.14;48.73;100436.48;106693;1256;587794;-53
2024/01/05 02:49:02;;;;;;;7.40;6.60;;;;;;;13.12;48.74;100443.70;107023;1258;25474;-51
2024/01/05 02:51:29;;;;;;;8.80;6.70;;;;;;;13.09;48.72;100443.80;107146;1256;22506;-51
2024/01/05 02:53:56;;;;;;;9.30;6.40;;;;;;;13.06;48.79;100445.09;107214;1257;25498;-51
2024/01/05 02:56:23;;;;;;;7.50;6.40;;;;;;;13.04;48.67;100448.30;106801;1273;25362;-51
2024/01/05 02:58:53;;;;;;;8.60;6.70;;;;;;;13.02;48.76;100452.19;105991;1272;1003123;-51
2024/01/05 03:01:20;;;;;;;8.10;7.00;;;;;;;13.00;48.68;100452.61;106826;1267;25484;-51
2024/01/05 03:03:48;;;;;;;9.50;6.60;;;;;;;12.98;48.75;100459.48;106387;1257;1003121;-51
2024/01/05 03:06:18;;;;;;;8.40;7.10;;;;;;;12.96;48.74;100467.04;107092;1257;25382;-51
2024/01/05 03:08:46;;;;;;;8.90;6.20;;;;;;;12.92;48.77;100471.89;107103;1256;25226;-52
2024/01/05 03:11:13;;;;;;;8.00;6.60;;;;;;;12.88;48.70;100466.29;107135;1256;25365;-51
2024/01/05 03:13:40;;;;;;;7.60;5.90;;;;;;;12.84;48.89;100467.84;107251;1256;25551;-51
2024/01/05 03:16:07;;;;;;;10.40;6.90;;;;;;;12.80;48.79;100465.88;107101;1261;25337;-52
2024/01/05 03:18:35;;;;;;;7.10;6.00;;;;;;;12.76;48.87;100471.06;107124;1250;22523;-51
2024/01/05 03:21:03;;;;;;;8.50;6.00;;;;;;;12.73;48.79;100474.48;107123;1257;25337;-51
2024/01/05 03:23:30;;;;;;;7.60;6.20;;;;;;;12.66;48.73;100476.44;107133;1257;25487;-52
2024/01/05 03:25:57;;;;;;;8.30;6.60;;;;;;;12.57;48.75;100477.45;107103;1263;22529;-51
2024/01/05 03:28:24;;;;;;;6.80;5.80;;;;;;;12.53;48.82;100489.61;107101;1256;25414;-51
2024/01/05 03:30:52;;;;;;;9.60;6.10;;;;;;;12.50;48.86;100500.36;107103;1257;25373;-51
2024/01/05 03:33:20;;;;;;;8.40;6.40;;;;;;;12.48;48.89;100502.33;107124;1255;25406;-51
2024/01/05 03:35:48;;;;;;;9.10;6.80;;;;;;;12.48;48.97;100500.41;106382;1255;1005231;-51
2024/01/05 03:38:14;;;;;;;6.80;6.10;;;;;;;12.47;48.99;100509.99;107042;1256;25392;-52
2024/01/05 03:40:41;;;;;;;6.50;5.60;;;;;;;12.47;48.90;100520.27;107123;1263;24072;-51
2024/01/05 03:43:08;;;;;;;8.70;7.00;;;;;;;12.48;48.79;100527.02;107167;1261;24347;-51
2024/01/05 03:45:36;;;;;;;8.90;6.10;;;;;;;12.48;48.77;100528.79;106808;1270;25353;-51
2024/01/05 03:48:04;;;;;;;7.10;5.90;;;;;;;12.47;48.77;100526.18;107109;1254;25487;-51
2024/01/05 03:50:31;;;;;;;11.10;6.00;;;;;;;12.45;48.76;100522.60;106736;1260;24202;-51
2024/01/05 03:52:58;;;;;;;10.20;5.90;;;;;;;12.44;48.74;100523.84;107082;1262;25487;-51
2024/01/05 03:55:26;;;;;;;6.50;5.70;;;;;;;12.43;48.70;100532.39;107133;1264;25378;-51
2024/01/05 03:57:53;;;;;;;7.20;6.10;;;;;;;12.43;48.67;100543.70;107082;1266;25443;-51
2024/01/05 04:00:20;;;;;;;7.70;6.20;;;;;;;12.42;48.58;100546.88;106999;1257;25325;-51
2024/01/05 04:02:47;;;;;;;7.20;6.40;;;;;;;12.41;48.53;100558.58;107150;1257;25405;-51
2024/01/05 04:05:14;;;;;;;7.50;6.30;;;;;;;12.38;48.48;100567.70;107063;1263;25383;-51
2024/01/05 04:07:42;;;;;;;7.30;6.50;;;;;;;12.36;48.34;100577.70;107175;1263;25523;-51
2024/01/05 04:10:09;;;;;;;7.40;6.40;;;;;;;12.32;48.34;100578.35;107091;1257;25328;-51
2024/01/05 04:12:36;;;;;;;8.20;6.60;;;;;;;12.28;48.41;100581.97;107290;1261;25356;-51
2024/01/05 04:15:05;;;;;;;7.50;6.40;;;;;;;12.23;48.45;100582.97;107176;1257;25411;-51
2024/01/05 04:17:32;;;;;;;8.50;6.70;;;;;;;12.19;48.54;100584.65;107174;1256;24256;-51
2024/01/05 04:20:00;;;;;;;9.00;7.30;;;;;;;12.16;48.63;100590.69;107113;1257;22523;-51
2024/01/05 04:22:30;;;;;;;7.20;6.10;;;;;;;12.13;48.72;100598.60;107092;1256;25328;-51
2024/01/05 04:24:59;;;;;;;8.60;6.80;;;;;;;12.11;48.72;100605.80;106951;1267;25356;-51
2024/01/05 04:27:26;;;;;;;9.40;6.70;;;;;;;12.09;48.75;100608.80;107126;1257;25354;-51
2024/01/05 04:29:53;;;;;;;7.10;6.30;;;;;;;12.08;48.71;100606.06;107024;1262;24248;-51
2024/01/05 04:32:20;;;;;;;8.30;6.70;;;;;;;12.06;48.71;100608.20;107009;1256;25519;-51
2024/01/05 04:34:47;;;;;;;7.60;6.60;;;;;;;12.04;48.69;100612.77;107127;1257;25352;-51
2024/01/05 04:37:14;;;;;;;8.00;6.60;;;;;;;12.04;48.86;100613.48;107139;1263;24343;-51
2024/01/05 04:39:43;;;;;;;7.20;6.40;;;;;;;12.03;48.81;100613.51;106803;1267;25449;-51
2024/01/05 04:42:11;;;;;;;8.70;6.50;;;;;;;12.04;48.87;100616.96;107029;1263;25352;-51
2024/01/05 04:44:38;;;;;;;7.80;6.00;;;;;;;12.04;48.85;100624.44;107189;1254;24418;-51
2024/01/05 04:47:05;;;;;;;8.50;6.60;;;;;;;12.04;48.90;100624.24;106836;1273;25369;-51
2024/01/05 04:49:33;;;;;;;7.80;6.50;;;;;;;12.05;48.83;100622.67;106854;1267;25343;-51
2024/01/05 04:52:01;;;;;;;8.50;6.60;;;;;;;12.04;48.58;100623.55;106482;1272;25366;-53
2024/01/05 04:54:27;;;;;;;8.60;6.80;;;;;;;12.03;48.55;100627.41;106774;1266;26088;-51
2024/01/05 04:56:55;;;;;;;8.70;6.50;;;;;;;12.02;48.49;100639.60;107111;1257;24205;-51
2024/01/05 04:59:22;;;;;;;8.10;6.80;;;;;;;12.01;48.37;100646.43;106912;1256;25362;-51
2024/01/05 05:01:49;;;;;;;8.00;6.50;;;;;;;11.97;48.14;100647.40;106922;1257;25374;-51
2024/01/05 05:04:19;;;;;;;7.40;6.70;;;;;;;11.93;48.15;100656.73;106650;1268;25367;-51
2024/01/05 05:06:46;;;;;;;7.00;6.20;;;;;;;11.89;48.17;100658.95;106818;1257;25593;-51
2024/01/05 05:09:13;;;;;;;7.10;6.30;;;;;;;11.84;48.17;100665.16;106770;1266;25490;-52
2024/01/05 05:11:40;;;;;;;8.80;7.10;;;;;;;11.80;48.18;100672.93;106766;1262;23993;-51
2024/01/05 05:14:07;;;;;;;8.40;6.50;;;;;;;11.77;48.17;100678.40;106305;1263;1002966;-51
2024/01/05 05:16:35;;;;;;;7.40;6.50;;;;;;;11.73;48.29;100682.88;106855;1260;25328;-51
2024/01/05 05:19:02;;;;;;;7.90;6.90;;;;;;;11.70;48.19;100687.13;107052;1267;25414;-51
2024/01/05 05:21:30;;;;;;;7.70;6.50;;;;;;;11.67;48.26;100686.15;107079;1271;24282;-51
2024/01/05 05:23:57;;;;;;;8.10;6.50;;;;;;;11.64;48.31;100689.35;106976;1266;25342;-51
2024/01/05 05:26:24;;;;;;;6.70;5.90;;;;;;;11.56;48.26;100690.10;107143;1257;25419;-53
2024/01/05 05:28:51;;;;;;;8.40;6.70;;;;;;;11.43;48.39;100691.79;107107;1263;25405;-53
2024/01/05 05:31:18;;;;;;;7.50;6.70;;;;;;;11.35;48.63;100692.88;107158;1257;25322;-52
2024/01/05 05:33:46;;;;;;;8.00;6.40;;;;;;;11.30;48.75;100699.09;106805;1274;25475;-52
2024/01/05 05:36:13;;;;;;;8.90;7.10;;;;;;;11.30;48.91;100709.84;107116;1266;25346;-53
2024/01/05 05:38:40;;;;;;;7.30;5.90;;;;;;;11.32;48.84;100713.98;107130;1264;25564;-52
2024/01/05 05:41:07;;;;;;;8.30;5.80;;;;;;;11.31;48.95;100722.67;107078;1256;25313;-51
2024/01/05 05:43:36;;;;;;;8.70;6.60;;;;;;;11.27;48.90;100732.33;106629;1274;25511;-52
2024/01/05 05:46:03;;;;;;;8.30;6.70;;;;;;;11.18;48.94;100736.55;107088;1256;25236;-52
2024/01/05 05:48:30;;;;;;;7.70;6.40;;;;;;;11.12;49.08;100743.14;107099;1257;25487;-51
2024/01/05 05:50:57;;;;;;;7.60;6.50;;;;;;;11.09;49.26;100749.78;106851;1259;25392;-51
2024/01/05 05:53:24;;;;;;;7.20;5.80;;;;;;;11.12;49.36;100757.89;106800;1273;25328;-51
2024/01/05 05:55:52;;;;;;;7.40;6.20;;;;;;;11.16;49.28;100761.60;107155;1260;25338;-51
2024/01/05 05:58:19;;;;;;;7.60;6.50;;;;;;;11.23;49.20;100762.64;107068;1267;25363;-52
2024/01/05 06:00:46;;;;;;;6.70;5.70;;;;;;;11.27;49.11;100763.92;107129;1262;25312;-52
2024/01/05 06:03:13;;;;;;;7.80;6.20;;;;;;;11.31;49.02;100767.83;106359;1265;1003229;-51
2024/01/05 06:05:41;;;;;;;9.30;7.50;;;;;;;11.36;49.00;100768.58;107075;1266;25362;-51
2024/01/05 06:08:08;;;;;;;9.90;7.50;;;;;;;11.40;49.02;100771.08;107075;1266;25356;-51
2024/01/05 06:10:36;;;;;;;9.60;6.70;;;;;;;11.44;48.82;100773.40;107081;1270;25446;-52
2024/01/05 06:13:04;;;;;;;7.30;6.10;;;;;;;11.48;48.78;100782.70;107067;1263;25365;-52
2024/01/05 06:15:31;;;;;;;6.60;5.70;;;;;;;11.52;48.77;100780.19;107174;1264;22936;-51
2024/01/05 06:17:58;;;;;;;7.20;5.60;;;;;;;11.54;48.70;100784.99;107131;1263;25359;-52
2024/01/05 06:20:25;;;;;;;6.70;5.90;;;;;;;11.57;48.69;100794.80;106090;1269;1003212;-52
2024/01/05 06:22:53;;;;;;;8.10;5.80;;;;;;;11.63;48.60;100794.48;107078;1266;25520;-51
2024/01/05 06:25:20;;;;;;;6.50;5.80;;;;;;;11.71;48.37;100796.05;107112;1257;25474;-51
2024/01/05 06:27:47;;;;;;;6.20;5.60;;;;;;;11.78;48.15;100802.83;107131;1257;24202;-51
2024/01/05 06:30:15;;;;;;;9.90;6.10;;;;;;;11.81;47.89;100802.39;106482;1257;1003435;-51
2024/01/05 06:32:42;;;;;;;7.50;5.90;;;;;;;11.82;47.88;100814.71;106355;1257;1003755;-51
2024/01/05 06:35:11;;;;;;;6.80;5.50;;;;;;;11.81;47.77;100811.78;106861;1269;25325;-51
2024/01/05 06:37:37;;;;;;;6.00;5.30;;;;;;;11.80;47.83;100812.84;106856;1259;23896;-51
2024/01/05 06:40:05;;;;;;;5.80;5.20;;;;;;;11.80;47.98;100813.20;107103;1266;25343;-51
2024/01/05 06:42:33;;;;;;;6.20;5.60;;;;;;;11.80;48.06;100811.62;107041;1257;25366;-51
2024/01/05 06:45:00;;;;;;;7.10;5.30;;;;;;;11.82;48.13;100816.98;107130;1266;25332;-51
2024/01/05 06:47:28;;;;;;;6.40;5.00;;;;;;;11.84;48.18;100822.65;106874;1270;25328;-52
2024/01/05 06:49:55;;;;;;;5.60;5.00;;;;;;;11.85;48.13;100824.17;107083;1259;25603;-51
2024/01/05 06:52:23;;;;;;;9.70;5.20;;;;;;;11.83;48.20;100827.35;106885;1265;24237;-51
2024/01/05 06:54:50;;;;;;;6.70;5.50;;;;;;;11.86;48.33;100825.20;107178;1268;25353;-51
2024/01/05 06:57:17;;;;;;;5.50;4.80;;;;;;;11.89;48.24;100829.99;107193;1257;25484;-51
2024/01/05 06:59:44;;;;;;;6.40;5.20;;;;;;;11.90;48.11;100832.92;107193;1262;25356;-51
2024/01/05 07:02:11;;;;;;;5.90;4.80;;;;;;;11.87;48.11;100832.66;107158;1264;25414;-51
2024/01/05 07:04:40;;;;;;;5.40;4.80;;;;;;;11.84;48.23;100829.96;106790;1263;25328;-51
2024/01/05 07:07:07;;;;;;;5.10;4.60;;;;;;;11.81;48.48;100836.45;107220;1263;25319;-51
2024/01/05 07:09:34;;;;;;;5.20;4.40;;;;;;;11.81;48.50;100838.38;107078;1256;25353;-51
2024/01/05 07:12:02;;;;;;;6.60;4.80;;;;;;;11.81;48.71;100839.79;107210;1260;25414;-51
2024/01/05 07:14:30;;;;;;;7.00;4.70;;;;;;;11.83;48.81;100845.43;106884;1267;25369;-52
2024/01/05 07:16:58;;;;;;;5.10;4.00;;;;;;;11.85;48.94;100844.37;107051;1257;25484;-51
2024/01/05 07:19:25;;;;;;;6.30;3.90;;;;;;;11.91;49.06;100846.10;107155;1258;25347;-52
2024/01/05 07:21:53;;;;;;;5.30;3.90;;;;;;;12.00;48.98;100847.42;107119;1257;25361;-51
2024/01/05 07:24:20;;;;;;;6.80;3.30;;;;;;;12.08;48.98;100847.56;107053;1266;25356;-51
2024/01/05 07:26:47;;;;;;;3.90;3.00;;;;;;;12.17;48.93;100848.20;106820;1269;25328;-51
2024/01/05 07:29:14;;;;;;;3.90;2.70;;;;;;;12.27;48.77;100854.02;107110;1258;25328;-51
2024/01/05 07:31:41;;;;;;;3.40;3.10;;;;;;;12.36;48.63;100859.86;107123;1266;25405;-51
2024/01/05 07:34:08;;;;;;;4.00;3.10;;;;;;;12.43;48.55;100862.09;107085;1267;25372;-51
2024/01/05 07:36:42;;;;;;;3.50;3.20;;;;;;;12.52;48.44;100865.85;107061;1257;25292;-51
2024/01/05 07:39:11;;;;;;;4.60;3.10;;;;;;;12.58;48.39;100865.83;107199;1255;22634;-51
2024/01/05 07:41:41;;;;;;;3.80;2.90;;;;;;;12.66;48.49;100864.92;107025;1257;25328;-51
2024/01/05 07:44:08;;;;;;;2.80;2.40;;;;;;;12.73;48.40;100866.27;107225;1267;25337;-51
2024/01/05 07:46:45;;;;;;;4.30;2.90;;;;;;;12.81;48.43;100870.05;107065;1257;25443;-51
2024/01/05 07:49:12;;;;;;;2.60;2.40;;;;;;;12.89;48.36;100866.66;106767;1261;25507;-51
2024/01/05 07:51:39;;;;;;;4.00;2.50;;;;;;;12.98;48.32;100866.39;106856;1260;25324;-51
2024/01/05 07:54:09;;;;;;;3.50;2.60;;;;;;;13.08;48.25;100872.41;106825;1261;25353;-51
2024/01/05 07:56:37;;;;;;;2.70;2.30;;;;;;;13.16;48.20;100876.35;107198;1258;25346;-51
2024/01/05 07:59:04;;;;;;;3.60;2.30;;;;;;;13.25;48.17;100890.36;106824;1267;25356;-51
2024/01/05 08:01:31;;;;;;;2.60;2.30;;;;;;;13.34;48.07;100893.23;106849;1267;23317;-52
2024/01/05 08:03:58;;;;;;;2.50;2.30;;;;;;;13.42;48.11;100896.45;107115;1257;22649;-51
2024/01/05 08:06:25;;;;;;;2.30;2.10;;;;;;;13.49;47.95;100902.67;107055;1264;25458;-51
2024/01/05 08:08:53;;;;;;;2.80;1.90;;;;;;;13.56;48.00;100905.96;107176;1254;25580;-51
2024/01/05 08:11:19;;;;;;;2.20;2.00;;;;;;;13.60;47.93;100901.27;107091;1266;25393;-51
2024/01/05 08:13:47;;;;;;;2.70;2.00;;;;;;;13.65;47.83;100907.02;107069;1256;25368;-51
2024/01/05 08:16:13;;;;;;;2.00;1.80;;;;;;;13.71;47.80;100909.63;106790;1263;25352;-51
2024/01/05 08:18:41;;;;;;;3.30;2.10;;;;;;;13.77;47.52;100912.93;107216;1267;25343;-51
2024/01/05 08:21:08;;;;;;;2.70;1.80;;;;;;;13.82;47.24;100914.84;107163;1266;25356;-51
2024/01/05 08:23:36;;;;;;;1.80;1.50;;;;;;;13.88;46.97;100917.28;107114;1266;25347;-52
2024/01/05 08:26:04;;;;;;;1.60;1.40;;;;;;;13.93;46.87;100919.38;107093;1258;25350;-51
2024/01/05 08:28:31;;;;;;;1.20;1.10;;;;;;;13.99;46.83;100924.92;106977;1251;25356;-51
2024/01/05 08:30:58;;;;;;;1.80;1.40;;;;;;;14.06;46.47;100924.36;106858;1267;25573;-51
2024/01/05 08:33:25;;;;;;;1.60;1.20;;;;;;;14.11;46.29;100928.35;107046;1253;22657;-51
2024/01/05 08:35:53;;;;;;;2.10;1.40;;;;;;;14.15;46.20;100931.35;106157;1267;1002979;-51
2024/01/05 08:38:20;;;;;;;2.90;1.60;;;;;;;14.20;46.22;100933.46;106998;1260;25405;-51
2024/01/05 08:40:50;;;;;;;3.20;1.50;;;;;;;14.25;46.13;100941.48;106905;1261;25426;-51
2024/01/05 08:43:17;;;;;;;2.80;1.40;;;;;;;14.30;46.08;100947.64;106625;1264;22757;-51
2024/01/05 08:45:47;;;;;;;2.20;1.50;;;;;;;14.34;46.17;100945.05;105616;1273;1003016;-51
2024/01/05 08:48:17;;;;;;;3.20;1.90;;;;;;;14.40;46.39;100945.74;106309;1260;25369;-51
2024/01/05 08:50:44;;;;;;;1.90;1.60;;;;;;;14.47;46.55;100948.09;106596;1259;25396;-52
2024/01/05 08:53:11;;;;;;;2.00;1.60;;;;;;;14.55;46.50;100949.39;105818;1261;1002989;-51
2024/01/05 08:55:38;;;;;;;1.90;1.20;;;;;;;14.64;46.31;100953.08;106628;1260;26061;-52
2024/01/05 08:58:06;;;;;;;1.40;1.20;;;;;;;14.74;46.03;100956.92;106282;1277;22861;-51
2024/01/05 09:00:33;;;;;;;1.80;1.20;;;;;;;14.84;45.99;100951.00;106350;1263;23880;-51
2024/01/05 09:03:01;;;;;;;2.30;1.30;;;;;;;14.94;45.74;100961.45;106534;1257;25406;-51
2024/01/05 09:05:29;;;;;;;1.80;1.40;;;;;;;15.03;45.60;100966.85;106569;1258;23885;-52
2024/01/05 09:07:56;;;;;;;1.70;1.30;;;;;;;15.13;45.38;100967.02;106578;1266;26534;-51
2024/01/05 09:10:23;;;;;;;3.70;1.60;;;;;;;15.20;45.16;100973.21;106067;1267;23852;-52
2024/01/05 09:12:50;;;;;;;1.90;1.10;;;;;;;15.24;44.92;100975.52;106503;1260;25405;-51
2024/01/05 09:15:18;;;;;;;1.30;1.20;;;;;;;15.26;44.80;100980.15;106440;1270;24202;-52
2024/01/05 09:17:45;;;;;;;1.90;1.70;;;;;;;15.29;44.82;100986.67;106618;1274;25453;-51
2024/01/05 09:20:13;;;;;;;1.80;1.30;;;;;;;15.33;44.95;100980.06;106756;1270;25347;-51
2024/01/05 09:22:40;;;;;;;1.20;1.10;;;;;;;15.37;44.61;100978.51;107098;1257;25373;-51
2024/01/05 09:25:10;;;;;;;1.70;1.10;;;;;;;15.39;43.05;100980.88;106415;1251;1002965;-52
2024/01/05 09:27:37;;;;;;;1.30;1.00;;;;;;;15.40;42.39;100979.62;107117;1260;23348;-52
2024/01/05 09:30:06;;;;;;;1.40;1.10;;;;;;;15.43;42.37;100977.95;107066;1270;25374;-51
2024/01/05 09:32:34;;;;;;;1.60;1.10;;;;;;;15.46;42.41;100982.90;107207;1251;22542;-51
2024/01/05 09:35:01;;;;;;;1.30;1.20;;;;;;;15.50;42.35;100990.84;107059;1257;25344;-50
2024/01/05 09:37:28;;;;;;;1.70;1.40;;;;;;;15.52;42.45;100994.42;106860;1255;25362;-51
2024/01/05 09:39:55;;;;;;;1.20;1.00;;;;;;;15.53;42.50;100996.48;106543;1260;25407;-51
2024/01/05 09:42:23;;;;;;;3.20;2.60;;;;;;;15.55;42.73;101002.52;106135;1270;1003340;-51
2024/01/05 09:44:52;;;;;;;1.60;1.20;;;;;;;15.59;42.80;100998.67;106801;1261;23126;-51
2024/01/05 09:47:19;;;;;;;2.30;1.40;;;;;;;15.63;42.43;101000.27;106705;1270;22527;-51
2024/01/05 09:49:49;;;;;;;1.40;1.00;;;;;;;15.66;42.09;101002.23;106450;1267;25583;-51
2024/01/05 09:52:16;;;;;;;2.90;1.20;;;;;;;15.70;41.90;101004.91;106885;1251;25423;-51
2024/01/05 09:54:43;;;;;;;2.10;1.40;;;;;;;15.73;41.70;101011.60;106796;1257;25372;-52
2024/01/05 09:57:13;;;;;;;1.90;1.50;;;;;;;15.75;41.59;101016.94;107064;1254;24231;-51
2024/01/05 09:59:40;;;;;;;2.80;1.80;;;;;;;15.78;41.49;101026.27;106909;1259;22685;-51
2024/01/05 10:02:10;;;;;;;2.00;1.80;;;;;;;15.77;41.52;101022.27;106827;1270;25541;-51
2024/01/05 10:04:37;;;;;;;2.10;1.90;;;;;;;15.72;41.32;101024.39;106886;1251;23920;-51
2024/01/05 10:07:04;;;;;;;2.30;1.80;;;;;;;15.62;41.43;101029.34;106802;1260;25347;-51
2024/01/05 10:09:31;;;;;;;4.40;2.30;;;;;;;15.50;41.56;101029.60;107051;1266;25379;-51
2024/01/05 10:11:59;;;;;;;2.60;2.20;;;;;;;15.40;41.74;101041.15;106219;1260;1003305;-51
2024/01/05 10:14:27;;;;;;;3.30;2.50;;;;;;;15.29;42.09;101050.15;106901;1257;25347;-51
2024/01/05 10:17:21;;;;;;;4.80;2.60;;;;;;;15.13;42.50;101055.62;106485;1273;24187;-51
2024/01/05 10:19:48;;;;;;;4.40;3.40;;;;;;;14.94;43.11;101067.13;106221;1264;24253;-51
2024/01/05 10:22:15;;;;;;;6.40;3.30;;;;;;;14.82;43.54;101072.27;106155;1273;25445;-51
2024/01/05 10:24:42;;;;;;;5.30;3.70;;;;;;;14.75;43.79;101076.67;106079;1276;22552;-51
2024/01/05 10:27:12;;;;;;;4.50;4.00;;;;;;;14.70;43.91;101086.11;106274;1261;25264;-51
2024/01/05 10:29:44;;;;;;;8.40;5.00;;;;;;;14.66;44.11;101086.56;106351;1261;25345;-51
2024/01/05 10:32:13;;;;;;;5.00;4.30;;;;;;;14.62;44.48;101084.10;106427;1276;24260;-51
2024/01/05 10:34:50;;;;;;;4.70;4.20;;;;;;;14.62;44.64;101091.95;105757;1264;1003154;-51
2024/01/05 10:37:19;;;;;;;5.30;4.80;;;;;;;14.65;44.85;101091.69;106492;1264;25335;-51
2024/01/05 10:39:46;;;;;;;5.90;4.60;;;;;;;14.67;45.10;101091.29;106468;1264;22546;-50
2024/01/05 10:42:29;;;;;;;7.80;4.40;;;;;;;14.64;45.26;101083.16;106122;1276;25503;-51
2024/01/05 10:44:57;;;;;;;5.70;3.90;;;;;;;14.57;45.74;101084.08;106349;1264;25365;-51
2024/01/05 10:47:26;;;;;;;4.30;3.80;;;;;;;14.52;45.87;101080.59;106356;1274;25288;-51
2024/01/05 10:49:55;;;;;;;5.10;4.10;;;;;;;14.50;46.03;101088.17;106547;1262;24260;-51
2024/01/05 10:52:26;;;;;;;4.40;4.00;;;;;;;14.47;46.23;101081.46;106524;1259;25486;-51
2024/01/05 10:54:52;;;;;;;5.70;4.10;;;;;;;14.46;46.31;101083.24;106502;1275;22583;-51
2024/01/05 10:57:20;;;;;;;7.90;4.70;;;;;;;14.45;46.40;101087.09;106908;1270;25392;-51
2024/01/05 10:59:49;;;;;;;5.00;4.40;;;;;;;14.43;46.67;101081.41;107086;1256;25347;-51
2024/01/05 11:02:21;;;;;;;5.40;4.70;;;;;;;14.45;46.68;101080.48;107177;1251;22560;-50
2024/01/05 11:05:10;;;;;;;5.10;4.50;;;;;;;14.48;46.63;101079.13;107181;1255;22555;-52
2024/01/05 11:07:38;;;;;;;5.30;4.20;;;;;;;14.51;46.69;101089.52;106474;1261;25328;-53
2024/01/05 11:10:23;;;;;;;5.70;4.10;;;;;;;14.52;46.61;101080.75;107088;1256;22542;-52
2024/01/05 11:12:51;;;;;;;5.30;4.00;;;;;;;14.55;46.47;101083.10;107089;1266;25346;-52
2024/01/05 11:15:43;;;;;;;6.30;4.40;;;;;;;14.55;46.49;101091.30;107087;1253;24268;-52
2024/01/05 11:18:23;;;;;;;5.20;4.30;;;;;;;14.55;46.47;101097.60;107116;1257;25381;-52